Time;durP1;ratioP1;P1;durP2;ratioP2;P2;SDS_P1;SDS_P2;PMS_P1;PMS_P2;Temp;Humidity;BMP_temperature;BMP_pressure;BME280_temperature;BME280_humidity;BME280_pressure;Samples;Min_cycle;Max_cycle;Signal;HPM_P1;HPM_P2
2023/04/14 00:04:44;;;;;;;0.90;0.60;;;;;;;6.33;100.00;97527.41;15291179;19;20019;-42
2023/04/14 00:10:13;;;;;;;2.03;0.70;;;;;;;6.30;100.00;97543.75;15284724;19;20027;-42
2023/04/14 00:15:37;;;;;;;0.95;0.75;;;;;;;6.19;100.00;97546.69;15290664;19;20107;-42
2023/04/14 00:21:01;;;;;;;0.98;0.65;;;;;;;6.23;100.00;97542.72;15283569;19;20674;-42
2023/04/14 00:26:29;;;;;;;1.65;0.70;;;;;;;6.13;100.00;97548.13;15291529;19;20816;-41
2023/04/14 00:31:53;;;;;;;0.95;0.70;;;;;;;6.12;100.00;97552.66;15284403;19;20025;-43
2023/04/14 00:37:18;;;;;;;1.63;0.80;;;;;;;6.11;100.00;97550.97;15287055;19;20026;-41
2023/04/14 00:42:54;;;;;;;2.15;0.60;;;;;;;6.07;100.00;97541.56;14769774;19;10000957;-42
2023/04/14 00:48:20;;;;;;;1.52;0.65;;;;;;;6.03;100.00;97553.59;15292157;19;20024;-41
2023/04/14 00:53:46;;;;;;;1.73;0.90;;;;;;;5.96;100.00;97564.03;15297208;19;20451;-41
2023/04/14 00:59:15;;;;;;;0.50;0.50;;;;;;;5.83;100.00;97561.72;15283469;19;20025;-42
2023/04/14 01:04:40;;;;;;;1.40;0.82;;;;;;;5.85;100.00;97557.06;15285161;19;20022;-42
2023/04/14 01:10:13;;;;;;;1.52;0.82;;;;;;;5.83;100.00;97561.72;15281879;19;20026;-45
2023/04/14 01:15:47;;;;;;;1.15;0.90;;;;;;;5.80;100.00;97561.19;15282977;19;20566;-41
2023/04/14 01:21:16;;;;;;;1.42;0.70;;;;;;;5.77;100.00;97558.81;15281821;19;20014;-41
2023/04/14 01:26:42;;;;;;;1.63;1.00;;;;;;;5.73;100.00;97563.63;15285959;19;20613;-42
2023/04/14 01:32:13;;;;;;;1.27;0.90;;;;;;;5.69;100.00;97568.44;15283094;19;20014;-42
2023/04/14 01:37:40;;;;;;;1.07;0.80;;;;;;;5.68;100.00;97576.63;15281945;19;20017;-43
2023/04/14 01:43:14;;;;;;;1.90;1.00;;;;;;;5.64;100.00;97580.56;15280319;19;20022;-41
2023/04/14 01:48:42;;;;;;;1.33;0.90;;;;;;;5.61;100.00;97586.22;15294863;19;20010;-43
2023/04/14 01:54:10;;;;;;;0.95;0.95;;;;;;;5.58;100.00;97591.88;15281235;19;20018;-42
2023/04/14 01:59:36;;;;;;;1.92;1.00;;;;;;;5.43;100.00;97589.72;15278526;19;20025;-42
2023/04/14 02:05:05;;;;;;;2.25;1.15;;;;;;;5.33;100.00;97591.59;15282136;19;20050;-41
2023/04/14 02:10:33;;;;;;;1.33;0.90;;;;;;;5.29;100.00;97596.41;15276719;19;20022;-41
2023/04/14 02:16:01;;;;;;;1.30;0.90;;;;;;;5.28;100.00;97594.72;15279010;19;20078;-42
2023/04/14 02:21:32;;;;;;;1.40;1.00;;;;;;;5.20;100.00;97584.78;15279272;19;20014;-41
2023/04/14 02:27:03;;;;;;;1.27;1.10;;;;;;;5.16;100.00;97577.19;15276948;19;20509;-41
2023/04/14 02:32:33;;;;;;;1.30;1.10;;;;;;;5.13;100.00;97583.66;15283244;19;20038;-42
2023/04/14 02:38:08;;;;;;;1.00;1.00;;;;;;;5.11;100.00;97574.97;15277355;19;20018;-41
2023/04/14 02:43:39;;;;;;;1.20;0.93;;;;;;;5.05;100.00;97580.88;15277057;19;20022;-41
2023/04/14 02:49:05;;;;;;;0.90;0.90;;;;;;;4.93;100.00;97567.72;15272291;19;20042;-41
2023/04/14 02:54:34;;;;;;;1.30;1.15;;;;;;;4.93;100.00;97575.75;15278387;19;20490;-41
2023/04/14 03:00:01;;;;;;;3.88;1.10;;;;;;;4.94;100.00;97582.75;15274391;19;20018;-41
2023/04/14 03:05:32;;;;;;;;;;;;;;;4.91;100.00;97585.72;15278780;19;20031;-39
2023/04/14 03:11:01;;;;;;;1.17;0.95;;;;;;;4.92;100.00;97581.25;15273110;19;19948;-41
2023/04/14 03:16:29;;;;;;;2.50;1.33;;;;;;;4.85;100.00;97586.31;15276264;19;20016;-42
2023/04/14 03:21:54;;;;;;;1.48;1.30;;;;;;;4.86;100.00;97589.81;15268328;19;20475;-42
2023/04/14 03:27:29;;;;;;;1.90;1.38;;;;;;;4.84;100.00;97595.31;15275045;19;20014;-42
2023/04/14 03:32:55;;;;;;;1.63;1.30;;;;;;;4.84;100.00;97587.28;15275587;19;20022;-41
2023/04/14 03:38:25;;;;;;;1.50;1.33;;;;;;;4.83;100.00;97592.75;15274090;19;20026;-41
2023/04/14 03:44:01;;;;;;;2.17;1.50;;;;;;;4.84;100.00;97592.63;15271174;19;20018;-42
2023/04/14 03:49:32;;;;;;;1.50;1.40;;;;;;;4.84;100.00;97592.63;15271973;19;20018;-42
2023/04/14 03:55:02;;;;;;;1.67;1.58;;;;;;;4.82;100.00;97591.94;15271154;19;20057;-43
2023/04/14 04:00:31;;;;;;;1.65;1.55;;;;;;;4.75;100.00;97590.84;15270587;19;20347;-51
2023/04/14 04:05:57;;;;;;;1.60;1.50;;;;;;;4.61;100.00;97584.13;15270093;19;20028;-47
2023/04/14 04:11:23;;;;;;;2.03;1.80;;;;;;;4.57;100.00;97586.25;15269698;19;20035;-46
2023/04/14 04:16:51;;;;;;;2.15;1.80;;;;;;;4.54;100.00;97583.84;15270446;19;20015;-48
2023/04/14 04:22:19;;;;;;;2.10;1.85;;;;;;;4.53;100.00;97592.00;15268641;19;20018;-46
2023/04/14 04:27:44;;;;;;;2.25;1.98;;;;;;;4.46;100.00;97584.59;15266936;19;20424;-48
2023/04/14 04:33:13;;;;;;;3.30;1.88;;;;;;;4.41;100.00;97592.16;15270291;19;20022;-46
2023/04/14 04:38:39;;;;;;;2.88;2.00;;;;;;;4.37;100.00;97614.75;15276637;19;20015;-46
2023/04/14 04:44:11;;;;;;;2.40;2.10;;;;;;;4.37;100.00;97613.94;15278616;19;20048;-48
2023/04/14 04:49:38;;;;;;;2.70;2.00;;;;;;;4.35;100.00;97621.22;15280727;19;20398;-47
2023/04/14 04:55:03;;;;;;;2.00;1.90;;;;;;;4.37;100.00;97624.59;15282148;19;20007;-45
2023/04/14 05:00:34;;;;;;;2.85;2.15;;;;;;;4.39;100.00;97627.97;15274817;19;20022;-46
2023/04/14 05:06:03;;;;;;;3.80;2.40;;;;;;;4.38;100.00;97627.13;15286457;19;20021;-45
2023/04/14 05:11:27;;;;;;;3.45;2.20;;;;;;;4.40;100.00;97629.66;15280428;19;20014;-48
2023/04/14 05:16:53;;;;;;;2.53;2.00;;;;;;;4.46;100.00;97623.75;15284769;19;20006;-45
2023/04/14 05:22:20;;;;;;;2.22;2.10;;;;;;;4.51;100.00;97610.84;15282345;19;20602;-46
2023/04/14 05:27:46;;;;;;;2.45;2.20;;;;;;;4.57;100.00;97604.91;15279296;19;20028;-48
2023/04/14 05:33:10;;;;;;;2.13;1.90;;;;;;;4.61;100.00;97595.66;15279863;19;20015;-47
2023/04/14 05:38:39;;;;;;;2.30;2.10;;;;;;;4.68;100.00;97595.06;15279991;19;20021;-49
2023/04/14 05:44:10;;;;;;;2.88;2.20;;;;;;;4.74;100.00;97605.16;15275460;19;20019;-46
2023/04/14 05:49:35;;;;;;;3.37;2.33;;;;;;;4.76;100.00;97608.53;15279826;19;20026;-47
2023/04/14 05:55:02;;;;;;;3.22;2.35;;;;;;;4.79;100.00;97613.56;15284063;19;20029;-47
2023/04/14 06:00:28;;;;;;;2.25;2.05;;;;;;;4.86;100.00;97612.00;15305642;19;20014;-48
2023/04/14 06:05:53;;;;;;;4.88;2.05;;;;;;;4.93;100.00;97612.28;15304132;19;20038;-49
2023/04/14 06:11:20;;;;;;;2.28;2.08;;;;;;;5.02;100.00;97607.88;15255962;19;20026;-45
2023/04/14 06:16:45;;;;;;;2.30;2.10;;;;;;;5.06;100.00;97606.59;15279195;19;20035;-47
2023/04/14 06:22:15;;;;;;;2.20;2.00;;;;;;;5.14;100.00;97611.22;15273822;19;20034;-48
2023/04/14 06:27:43;;;;;;;4.75;2.28;;;;;;;5.20;100.00;97611.47;15277613;19;20010;-49
2023/04/14 06:33:08;;;;;;;2.30;2.10;;;;;;;5.22;100.00;97611.31;15273358;19;20121;-47
2023/04/14 06:38:32;;;;;;;2.60;2.20;;;;;;;5.33;100.00;97620.97;15270734;19;20025;-46
2023/04/14 06:43:59;;;;;;;3.28;2.25;;;;;;;5.43;100.00;97608.41;15274092;19;20038;-49
2023/04/14 06:49:24;;;;;;;3.13;2.38;;;;;;;5.53;100.00;97608.34;15273125;19;20850;-46
2023/04/14 06:54:49;;;;;;;2.85;2.55;;;;;;;5.60;100.00;97600.56;15275585;19;20022;-46
2023/04/14 07:00:17;;;;;;;3.30;2.53;;;;;;;5.67;100.00;97580.28;15272387;19;20354;-46
2023/04/14 07:05:42;;;;;;;3.75;2.63;;;;;;;5.73;100.00;97585.00;15273882;19;20121;-48
2023/04/14 07:11:09;;;;;;;2.63;2.20;;;;;;;5.81;100.00;97582.44;15268263;19;20014;-49
2023/04/14 07:16:36;;;;;;;2.80;2.20;;;;;;;5.95;100.00;97580.19;15268380;19;20017;-48
2023/04/14 07:22:01;;;;;;;3.00;2.50;;;;;;;6.06;100.00;97590.69;15270641;19;20693;-49
2023/04/14 07:27:27;;;;;;;3.33;2.38;;;;;;;6.24;100.00;97593.38;15271699;19;20014;-47
2023/04/14 07:32:55;;;;;;;2.38;2.08;;;;;;;6.42;100.00;97603.22;15274127;19;20675;-48
2023/04/14 07:38:21;;;;;;;4.13;2.47;;;;;;;6.46;100.00;97586.69;15275040;19;20018;-46
2023/04/14 07:43:54;;;;;;;3.13;2.40;;;;;;;6.55;100.00;97597.44;15268147;19;20030;-47
2023/04/14 07:49:24;;;;;;;2.88;2.38;;;;;;;6.68;100.00;97611.25;15270111;19;20039;-46
2023/04/14 07:54:49;;;;;;;2.30;1.98;;;;;;;6.83;100.00;97598.13;15265219;19;20551;-44
2023/04/14 08:00:15;;;;;;;3.42;2.10;;;;;;;6.85;100.00;97596.16;15267928;19;20022;-43
2023/04/14 08:05:43;;;;;;;3.67;2.47;;;;;;;6.84;100.00;97581.06;15271557;19;20475;-51
2023/04/14 08:11:09;;;;;;;3.70;2.40;;;;;;;6.95;100.00;97585.34;15263598;19;20451;-47
2023/04/14 08:16:35;;;;;;;2.85;2.40;;;;;;;7.05;100.00;97590.59;15286776;19;20007;-45
2023/04/14 08:22:04;;;;;;;3.08;2.17;;;;;;;7.07;100.00;97594.78;15275825;19;20125;-44
2023/04/14 08:27:28;;;;;;;2.97;2.22;;;;;;;7.24;100.00;97603.72;15284348;19;20019;-48
2023/04/14 08:32:53;;;;;;;2.78;1.98;;;;;;;7.45;100.00;97596.28;15285250;19;20048;-45
2023/04/14 08:38:21;;;;;;;2.45;1.85;;;;;;;7.74;100.00;97600.38;15284114;19;20011;-48
2023/04/14 08:43:55;;;;;;;2.50;1.95;;;;;;;8.07;100.00;97593.25;15275508;19;20007;-44
2023/04/14 08:49:32;;;;;;;3.20;1.85;;;;;;;8.17;100.00;97582.38;15276569;19;20054;-46
2023/04/14 08:55:01;;;;;;;3.22;1.90;;;;;;;8.18;100.00;97571.47;15280333;19;20033;-47
2023/04/14 09:00:26;;;;;;;3.22;2.10;;;;;;;8.24;100.00;97591.41;15277399;19;20749;-46
2023/04/14 09:05:52;;;;;;;3.50;2.30;;;;;;;8.29;100.00;97599.78;15283366;19;20022;-49
2023/04/14 09:11:20;;;;;;;3.85;2.63;;;;;;;8.25;100.00;97586.88;15278530;19;20105;-47
2023/04/14 09:16:50;;;;;;;4.28;2.60;;;;;;;8.24;100.00;97587.88;15277088;19;20117;-51
2023/04/14 09:22:15;;;;;;;4.18;2.92;;;;;;;8.27;100.00;97592.91;15276343;19;20103;-50
2023/04/14 09:27:45;;;;;;;4.25;2.83;;;;;;;8.33;100.00;97586.91;15280272;19;20015;-50
2023/04/14 09:33:20;;;;;;;2.90;2.58;;;;;;;8.48;100.00;97585.22;15283940;19;20011;-52
2023/04/14 09:38:46;;;;;;;2.40;2.00;;;;;;;8.54;100.00;97589.09;15278531;19;20018;-47
2023/04/14 09:44:20;;;;;;;2.63;2.00;;;;;;;8.72;100.00;97572.78;15271248;19;20013;-51
2023/04/14 09:49:57;;;;;;;2.22;2.03;;;;;;;8.97;100.00;97570.06;15271099;19;20014;-47
2023/04/14 09:55:24;;;;;;;2.20;1.60;;;;;;;9.15;100.00;97561.78;15276995;19;20015;-45
2023/04/14 10:00:53;;;;;;;1.70;1.17;;;;;;;9.09;100.00;97562.47;15276478;19;20716;-45
2023/04/14 10:06:23;;;;;;;1.55;0.90;;;;;;;9.27;100.00;97574.81;15276679;19;20033;-48
2023/04/14 10:11:48;;;;;;;1.10;0.80;;;;;;;9.23;100.00;97569.78;15272863;19;20018;-48
2023/04/14 10:17:16;;;;;;;1.15;0.98;;;;;;;9.58;100.00;97557.91;15279491;19;20019;-47
2023/04/14 10:22:42;;;;;;;1.25;0.93;;;;;;;9.50;100.00;97556.91;15269970;19;20007;-51
2023/04/14 10:28:09;;;;;;;1.98;1.30;;;;;;;9.53;100.00;97564.63;15275872;19;20018;-50
2023/04/14 10:33:38;;;;;;;1.90;1.40;;;;;;;9.92;100.00;97567.44;15278741;19;20025;-53
2023/04/14 10:39:08;;;;;;;3.00;1.20;;;;;;;10.10;100.00;97559.91;15277228;19;20552;-49
2023/04/14 10:44:34;;;;;;;1.98;1.27;;;;;;;10.15;100.00;97567.44;15275195;19;20030;-48
2023/04/14 10:50:06;;;;;;;1.63;1.40;;;;;;;10.23;100.00;97569.25;15274821;19;20408;-47
2023/04/14 10:55:46;;;;;;;2.53;1.70;;;;;;;10.09;100.00;97560.09;15273377;19;20117;-49
2023/04/14 11:01:30;;;;;;;5.78;1.85;;;;;;;10.25;100.00;97540.28;15273132;19;20022;-50
2023/04/14 11:06:59;;;;;;;4.28;1.52;;;;;;;10.33;100.00;97542.91;15275008;19;20632;-48
2023/04/14 11:12:33;;;;;;;2.13;1.50;;;;;;;10.53;100.00;97527.09;15276448;19;20629;-51
2023/04/14 11:18:13;;;;;;;2.25;1.63;;;;;;;10.66;100.00;97504.09;15276679;19;20042;-45
2023/04/14 11:23:41;;;;;;;6.13;1.80;;;;;;;10.66;100.00;97515.69;15271040;19;20372;-50
2023/04/14 11:29:09;;;;;;;2.05;1.85;;;;;;;10.68;100.00;97513.66;15267275;19;20026;-48
2023/04/14 11:34:34;;;;;;;2.33;1.90;;;;;;;10.54;100.00;97517.16;15274682;19;20014;-46
2023/04/14 11:40:04;;;;;;;10.18;2.90;;;;;;;10.40;100.00;97522.38;15273676;19;20582;-47
2023/04/14 11:45:29;;;;;;;3.47;2.33;;;;;;;10.53;100.00;97510.09;15268288;19;20014;-49
2023/04/14 11:51:01;;;;;;;3.33;2.22;;;;;;;10.66;100.00;97487.94;15271128;19;20014;-46
2023/04/14 11:56:28;;;;;;;2.73;2.40;;;;;;;10.65;100.00;97495.16;15265612;19;20021;-47
2023/04/14 12:01:56;;;;;;;2.95;1.20;;;;;;;10.35;100.00;97487.03;15265120;19;20403;-44
2023/04/14 12:07:24;;;;;;;0.93;0.80;;;;;;;10.34;100.00;97490.72;15271718;19;20022;-45
2023/04/14 12:12:51;;;;;;;1.50;0.80;;;;;;;10.23;100.00;97499.25;15274775;19;20017;-47
2023/04/14 12:18:18;;;;;;;0.95;0.77;;;;;;;9.70;100.00;97505.38;15270030;19;20558;-45
2023/04/14 12:23:43;;;;;;;1.27;0.73;;;;;;;9.47;100.00;97497.28;15267839;19;20023;-46
2023/04/14 12:29:10;;;;;;;1.70;1.00;;;;;;;9.34;100.00;97503.25;15264052;19;20032;-44
2023/04/14 12:34:35;;;;;;;0.80;0.80;;;;;;;9.46;100.00;97504.53;15271391;19;20022;-44
2023/04/14 12:40:05;;;;;;;2.17;0.90;;;;;;;9.69;100.00;97487.56;15271639;19;20010;-45
2023/04/14 12:45:41;;;;;;;1.60;0.85;;;;;;;9.93;100.00;97477.66;15270018;19;20505;-45
2023/04/14 12:51:16;;;;;;;1.55;0.63;;;;;;;10.06;100.00;97467.09;15268993;19;20482;-45
2023/04/14 12:56:49;;;;;;;2.63;0.88;;;;;;;10.20;100.00;97461.94;15265952;19;20029;-44
2023/04/14 13:02:16;;;;;;;0.77;0.60;;;;;;;10.10;100.00;97456.81;15275905;19;20395;-46
2023/04/14 13:07:41;;;;;;;1.50;0.80;;;;;;;9.93;100.00;97456.94;15279880;19;20441;-45
2023/04/14 13:13:06;;;;;;;1.38;0.73;;;;;;;9.79;100.00;97442.44;15285546;19;20033;-44
2023/04/14 13:18:33;;;;;;;1.98;0.80;;;;;;;9.90;100.00;97445.72;15279188;19;20031;-47
2023/04/14 13:23:58;;;;;;;3.40;1.02;;;;;;;9.87;100.00;97442.38;15278760;19;20006;-45
2023/04/14 13:29:22;;;;;;;0.63;0.60;;;;;;;9.74;100.00;97441.31;15276146;19;20018;-46
2023/04/14 13:34:50;;;;;;;2.83;0.85;;;;;;;9.98;100.00;97426.81;15278088;19;20014;-46
2023/04/14 13:40:17;;;;;;;1.33;0.60;;;;;;;10.07;100.00;97430.25;15282247;19;20029;-45
2023/04/14 13:45:42;;;;;;;0.85;0.52;;;;;;;10.06;100.00;97421.34;15279821;19;20017;-45
2023/04/14 13:51:09;;;;;;;1.52;0.40;;;;;;;10.09;100.00;97420.97;15277195;19;20039;-45
2023/04/14 13:56:40;;;;;;;1.17;0.50;;;;;;;10.25;100.00;97411.09;15278809;19;20095;-46
2023/04/14 14:02:05;;;;;;;1.37;0.50;;;;;;;10.40;100.00;97409.28;15274918;19;20055;-46
2023/04/14 14:07:32;;;;;;;1.00;0.60;;;;;;;10.16;100.00;97408.47;15273300;19;20030;-48
2023/04/14 14:12:57;;;;;;;0.95;0.55;;;;;;;10.02;100.00;97418.19;15277703;19;20014;-47
2023/04/14 14:18:21;;;;;;;0.75;0.60;;;;;;;10.13;100.00;97410.69;15275427;19;20039;-45
2023/04/14 14:23:48;;;;;;;1.40;0.63;;;;;;;9.88;100.00;97413.59;15274349;19;20007;-49
2023/04/14 14:29:14;;;;;;;1.25;0.70;;;;;;;9.92;100.00;97414.91;15273511;19;20339;-46
2023/04/14 14:34:39;;;;;;;0.55;0.50;;;;;;;10.28;100.00;97400.78;15270482;19;20014;-51
2023/04/14 14:40:06;;;;;;;0.60;0.60;;;;;;;10.09;100.00;97407.53;15272368;19;20022;-47
2023/04/14 14:45:32;;;;;;;0.93;0.60;;;;;;;10.10;100.00;97403.81;15276399;19;20015;-52
2023/04/14 14:50:57;;;;;;;0.88;0.50;;;;;;;9.90;100.00;97403.50;15270479;19;20010;-48
2023/04/14 14:56:26;;;;;;;1.10;1.00;;;;;;;9.86;100.00;97418.34;15271728;19;20018;-49
2023/04/14 15:01:53;;;;;;;1.75;1.05;;;;;;;9.76;100.00;97407.84;15268205;19;20081;-46
2023/04/14 15:07:18;;;;;;;1.08;0.98;;;;;;;9.65;100.00;97417.16;15273810;19;20044;-45
2023/04/14 15:12:45;;;;;;;0.93;0.90;;;;;;;9.66;100.00;97420.69;15274717;19;20475;-49
2023/04/14 15:18:10;;;;;;;0.88;0.88;;;;;;;9.49;100.00;97422.66;15272468;19;20018;-45
2023/04/14 15:23:38;;;;;;;2.20;1.08;;;;;;;9.38;100.00;97438.22;15271172;19;20010;-44
2023/04/14 15:29:07;;;;;;;0.95;0.80;;;;;;;8.93;100.00;97440.63;15271003;19;20673;-46
2023/04/14 15:34:32;;;;;;;1.25;1.00;;;;;;;8.76;100.00;97434.50;15268442;19;20486;-50
2023/04/14 15:39:57;;;;;;;1.00;0.60;;;;;;;8.68;100.00;97437.22;15272643;19;20477;-47
2023/04/14 15:45:24;;;;;;;0.63;0.63;;;;;;;8.80;100.00;97434.97;15268431;19;20115;-48
2023/04/14 15:50:49;;;;;;;1.05;0.75;;;;;;;8.88;100.00;97432.25;15276058;19;20018;-47
2023/04/14 15:56:14;;;;;;;1.08;0.70;;;;;;;9.00;100.00;97434.53;15271024;19;20025;-45
2023/04/14 16:01:48;;;;;;;2.17;0.60;;;;;;;9.19;100.00;97439.50;15271924;19;20022;-46
2023/04/14 16:07:13;;;;;;;0.60;0.50;;;;;;;9.19;100.00;97436.81;15262498;19;20029;-47
2023/04/14 16:12:38;;;;;;;0.63;0.63;;;;;;;9.05;100.00;97421.44;15270487;19;20010;-47
2023/04/14 16:18:08;;;;;;;2.63;0.68;;;;;;;8.92;100.00;97438.94;15265290;19;20025;-45
2023/04/14 16:23:32;;;;;;;1.20;0.70;;;;;;;8.87;100.00;97435.13;15266537;19;20015;-51
2023/04/14 16:28:59;;;;;;;0.55;0.55;;;;;;;8.64;100.00;97441.25;15267461;19;20011;-47
2023/04/14 16:34:26;;;;;;;1.67;0.60;;;;;;;8.75;100.00;97434.69;15281113;19;20022;-47
2023/04/14 16:39:55;;;;;;;0.65;0.63;;;;;;;8.77;100.00;97438.84;15279759;19;20042;-44
2023/04/14 16:45:20;;;;;;;0.90;0.88;;;;;;;8.90;100.00;97445.53;15281159;19;20039;-44
2023/04/14 16:50:48;;;;;;;1.48;1.38;;;;;;;9.00;100.00;97447.97;15286209;19;20013;-45
2023/04/14 16:56:13;;;;;;;0.47;0.47;;;;;;;9.08;100.00;97446.09;15283992;19;20025;-43
2023/04/14 17:01:38;;;;;;;0.68;0.40;;;;;;;9.17;100.00;97456.81;15282648;19;20014;-44
2023/04/14 17:07:05;;;;;;;0.70;0.50;;;;;;;9.08;100.00;97448.78;15279028;19;20006;-43
2023/04/14 17:12:30;;;;;;;0.68;0.50;;;;;;;9.12;100.00;97441.19;15277299;19;20015;-46
2023/04/14 17:17:54;;;;;;;2.25;0.50;;;;;;;8.92;100.00;97446.19;15279487;19;20014;-46
2023/04/14 17:23:23;;;;;;;1.23;0.60;;;;;;;8.93;100.00;97455.91;15279438;19;20479;-42
2023/04/14 17:28:47;;;;;;;0.50;0.50;;;;;;;8.72;100.00;97459.19;15278966;19;20011;-44
2023/04/14 17:34:16;;;;;;;0.70;0.50;;;;;;;8.68;100.00;97458.69;15281550;19;20086;-46
2023/04/14 17:39:44;;;;;;;0.90;0.60;;;;;;;8.63;100.00;97459.22;15274356;19;20010;-46
2023/04/14 17:45:10;;;;;;;0.68;0.63;;;;;;;8.47;100.00;97459.22;15268093;19;20014;-45
2023/04/14 17:50:34;;;;;;;1.00;0.70;;;;;;;8.42;100.00;97475.84;15284449;19;20106;-45
2023/04/14 17:56:02;;;;;;;0.70;0.70;;;;;;;8.30;100.00;97461.94;15277757;19;20018;-44
2023/04/14 18:01:26;;;;;;;0.70;0.70;;;;;;;8.30;100.00;97459.25;15281108;19;20019;-45
2023/04/14 18:06:52;;;;;;;0.60;0.60;;;;;;;8.20;100.00;97450.53;15277347;19;20053;-43
2023/04/14 18:12:21;;;;;;;0.60;0.60;;;;;;;8.16;100.00;97451.91;15282112;19;20025;-47
2023/04/14 18:17:54;;;;;;;1.17;0.80;;;;;;;8.01;100.00;97462.47;15271751;19;20044;-46
2023/04/14 18:23:19;;;;;;;2.05;0.85;;;;;;;7.95;100.00;97469.34;15278718;19;20029;-45
2023/04/14 18:28:46;;;;;;;1.02;0.60;;;;;;;7.84;100.00;97469.69;15273453;19;20014;-43
2023/04/14 18:34:12;;;;;;;0.60;0.60;;;;;;;7.83;100.00;97476.03;15279908;19;20022;-44
2023/04/14 18:39:39;;;;;;;0.60;0.60;;;;;;;7.84;100.00;97483.09;15272160;19;20021;-44
2023/04/14 18:45:08;;;;;;;0.63;0.60;;;;;;;7.81;100.00;97473.53;15275248;19;20026;-45
2023/04/14 18:50:32;;;;;;;0.57;0.57;;;;;;;7.67;100.00;97477.72;15271107;19;20014;-43
2023/04/14 18:55:57;;;;;;;1.00;0.60;;;;;;;7.63;100.00;97480.91;15273174;19;20471;-46
2023/04/14 19:01:24;;;;;;;0.68;0.68;;;;;;;7.60;100.00;97479.38;15277285;19;20011;-44
2023/04/14 19:06:51;;;;;;;1.02;0.80;;;;;;;7.61;100.00;97485.59;15272619;19;20713;-44
2023/04/14 19:12:15;;;;;;;1.00;0.90;;;;;;;7.58;100.00;97484.09;15277597;19;20535;-46
2023/04/14 19:17:48;;;;;;;0.80;0.80;;;;;;;7.49;100.00;97496.63;15274143;19;20022;-46
2023/04/14 19:23:12;;;;;;;0.80;0.80;;;;;;;7.49;100.00;97506.50;15272293;19;20017;-44
2023/04/14 19:28:38;;;;;;;1.00;0.80;;;;;;;7.47;100.00;97511.19;15271436;19;20748;-44
2023/04/14 19:34:05;;;;;;;1.00;1.00;;;;;;;7.42;100.00;97502.81;15274155;19;20663;-44
2023/04/14 19:39:30;;;;;;;1.10;1.00;;;;;;;7.31;100.00;97510.16;15270400;19;20014;-45
2023/04/14 19:44:55;;;;;;;1.33;1.20;;;;;;;7.15;100.00;97502.06;15275349;19;20029;-45
2023/04/14 19:50:24;;;;;;;1.30;1.20;;;;;;;7.04;100.00;97504.03;15280213;19;20006;-49
2023/04/14 19:55:42;;;;;;;1.50;1.40;;;;;;;6.93;100.00;97512.34;15280927;19;20377;-44
2023/04/14 20:01:13;;;;;;;1.30;1.20;;;;;;;6.93;100.00;97502.50;15283131;19;20019;-45
2023/04/14 20:06:41;;;;;;;1.60;1.40;;;;;;;6.92;100.00;97505.31;15280526;19;20024;-45
2023/04/14 20:12:07;;;;;;;1.38;1.27;;;;;;;6.94;100.00;97497.97;15298757;19;20039;-47
2023/04/14 20:17:32;;;;;;;1.35;1.30;;;;;;;6.99;100.00;97501.00;15291423;19;20021;-45
2023/04/14 20:23:00;;;;;;;2.20;1.30;;;;;;;6.93;100.00;97497.16;15294181;19;20392;-45
2023/04/14 20:28:26;;;;;;;1.30;1.20;;;;;;;6.84;100.00;97490.06;15292123;19;20024;-43
2023/04/14 20:33:52;;;;;;;1.40;1.25;;;;;;;6.77;100.00;97484.50;15293451;19;20027;-43
2023/04/14 20:39:20;;;;;;;1.30;1.20;;;;;;;6.72;100.00;97481.47;15283013;19;20023;-44
2023/04/14 20:44:44;;;;;;;1.23;1.13;;;;;;;6.72;100.00;97488.66;15284008;19;20018;-43
2023/04/14 20:50:11;;;;;;;2.10;1.30;;;;;;;6.59;100.00;97481.06;15286512;19;20025;-43
2023/04/14 20:55:39;;;;;;;1.50;1.40;;;;;;;6.53;100.00;97487.03;15279423;19;20007;-44
2023/04/14 21:01:12;;;;;;;1.42;1.33;;;;;;;6.43;100.00;97490.69;15286904;19;20459;-45
2023/04/14 21:06:37;;;;;;;1.80;1.70;;;;;;;6.45;100.00;97482.50;15281052;19;20021;-42
2023/04/14 21:12:04;;;;;;;1.80;1.70;;;;;;;6.50;100.00;97490.06;15285447;19;20023;-43
2023/04/14 21:17:33;;;;;;;1.95;1.73;;;;;;;6.48;100.00;97490.19;15281571;19;20018;-44
2023/04/14 21:22:58;;;;;;;2.00;1.90;;;;;;;6.46;100.00;97497.56;15281553;19;20633;-43
2023/04/14 21:28:27;;;;;;;2.10;1.90;;;;;;;6.48;100.00;97500.91;15270929;19;20019;-44
2023/04/14 21:33:51;;;;;;;2.50;2.30;;;;;;;6.41;100.00;97492.66;15285892;19;20086;-42
2023/04/14 21:39:16;;;;;;;2.55;2.35;;;;;;;6.42;100.00;97507.72;15277500;19;20034;-43
2023/04/14 21:44:43;;;;;;;2.60;2.40;;;;;;;6.43;100.00;97512.09;15281262;19;20011;-43
2023/04/14 21:50:10;;;;;;;2.80;2.60;;;;;;;6.45;100.00;97504.75;15283192;19;20011;-43
2023/04/14 21:55:34;;;;;;;3.65;3.35;;;;;;;6.45;100.00;97509.28;15279886;19;20018;-50
2023/04/14 22:01:10;;;;;;;4.05;3.65;;;;;;;6.46;100.00;97495.72;15273169;19;20018;-43
2023/04/14 22:06:36;;;;;;;3.90;3.60;;;;;;;6.45;100.00;97488.69;15276432;19;20048;-43
2023/04/14 22:12:00;;;;;;;4.28;3.97;;;;;;;6.46;100.00;97494.91;15280678;19;20018;-43
2023/04/14 22:17:28;;;;;;;3.90;3.60;;;;;;;6.42;100.00;97494.34;15277689;19;20014;-42
2023/04/14 22:22:53;;;;;;;4.10;3.80;;;;;;;6.40;100.00;97487.50;15280903;19;20479;-42
2023/04/14 22:28:18;;;;;;;3.50;3.20;;;;;;;6.44;100.00;97503.06;15275931;19;20025;-43
2023/04/14 22:33:45;;;;;;;4.13;3.70;;;;;;;6.42;100.00;97494.34;15272814;19;20018;-42
2023/04/14 22:39:10;;;;;;;3.97;3.60;;;;;;;6.41;100.00;97484.66;15273360;19;20019;-42
2023/04/14 22:44:35;;;;;;;4.32;3.92;;;;;;;6.41;100.00;97489.16;15278507;19;20726;-42
2023/04/14 22:50:03;;;;;;;4.70;4.30;;;;;;;6.37;100.00;97491.31;15276917;19;20485;-42
2023/04/14 22:55:27;;;;;;;4.75;4.35;;;;;;;6.36;100.00;97486.97;15277024;19;20729;-42
2023/04/14 23:00:58;;;;;;;4.90;4.40;;;;;;;6.38;100.00;97479.63;15275412;19;20052;-42
2023/04/14 23:06:35;;;;;;;4.88;4.47;;;;;;;6.37;100.00;97469.06;15266130;19;20025;-43
2023/04/14 23:12:00;;;;;;;4.53;4.13;;;;;;;6.34;100.00;97472.09;15277134;19;20047;-42
2023/04/14 23:17:26;;;;;;;4.97;4.57;;;;;;;6.35;100.00;97468.41;15273851;19;20010;-42
2023/04/14 23:22:53;;;;;;;5.60;4.65;;;;;;;6.28;100.00;97458.34;15277619;19;20025;-42
2023/04/14 23:28:18;;;;;;;5.25;4.85;;;;;;;6.25;100.00;97461.31;15272260;19;20006;-42
2023/04/14 23:33:43;;;;;;;4.80;4.40;;;;;;;6.30;100.00;97464.38;15275755;19;20018;-45
2023/04/14 23:39:11;;;;;;;5.25;4.75;;;;;;;6.29;100.00;97461.88;15262937;19;20074;-40
2023/04/14 23:44:36;;;;;;;4.90;4.50;;;;;;;6.25;100.00;97461.31;15272887;19;20021;-45
2023/04/14 23:50:01;;;;;;;4.90;4.50;;;;;;;6.30;100.00;97460.84;15273547;19;20420;-43
2023/04/14 23:55:28;;;;;;;5.43;4.90;;;;;;;6.24;100.00;97450.78;15275040;19;20019;-42
